Greenville, South Carolina
Current Conditions -  °F | °C
As of 7:53 PM on Friday 24 Oct 2014 (Local Time) from KGMU Reporting Station
Clear Clear  
Wind Chill: 60°   Ceiling: Unl
Heat Index: 60°   Visibility: 10mi
Dew Point: 48°   Wind: 3mph
Humidity: 64%   Direction: 270°W
Pressure: 30.01"   Gusts: NA
Location:  34.85°N, 82.4°W
Report Text: KGMU 242353Z 27003KT 10SM CLR 16/09 A3001 RMK AO2 SLP162 T01560089 10206 20156 53003
Loading
Personal Weather Stations






























Interactive Weather Map
Tropical Storm Tracking
New forecast layout! Learn more

10-Day Weather Forecast

Advertisements
Track Severe Weather on mobile